sensor_id;sensor_type;location;lat;lon;timestamp;temperature;humidity
14670;DHT22;7423;48.722;9.350;2023-08-21T00:02:21;27.00;99.90
14670;DHT22;7423;48.722;9.350;2023-08-21T00:04:48;27.00;99.90
14670;DHT22;7423;48.722;9.350;2023-08-21T00:07:15;27.00;99.90
14670;DHT22;7423;48.722;9.350;2023-08-21T00:09:43;26.90;99.90
14670;DHT22;7423;48.722;9.350;2023-08-21T00:12:10;26.90;99.90
14670;DHT22;7423;48.722;9.350;2023-08-21T00:14:38;26.90;99.90
14670;DHT22;7423;48.722;9.350;2023-08-21T00:17:05;26.90;99.90
14670;DHT22;7423;48.722;9.350;2023-08-21T00:19:32;26.90;99.90
14670;DHT22;7423;48.722;9.350;2023-08-21T00:22:00;26.90;99.90
14670;DHT22;7423;48.722;9.350;2023-08-21T00:24:27;26.80;99.90
14670;DHT22;7423;48.722;9.350;2023-08-21T00:26:54;26.80;99.90
14670;DHT22;7423;48.722;9.350;2023-08-21T00:29:23;26.80;99.90
14670;DHT22;7423;48.722;9.350;2023-08-21T00:31:50;26.80;99.90
14670;DHT22;7423;48.722;9.350;2023-08-21T00:34:17;26.70;99.90
14670;DHT22;7423;48.722;9.350;2023-08-21T00:36:44;26.70;99.90
14670;DHT22;7423;48.722;9.350;2023-08-21T00:39:11;26.70;99.90
14670;DHT22;7423;48.722;9.350;2023-08-21T00:41:38;26.70;99.90
14670;DHT22;7423;48.722;9.350;2023-08-21T00:44:05;26.70;99.90
14670;DHT22;7423;48.722;9.350;2023-08-21T00:46:33;26.70;99.90
14670;DHT22;7423;48.722;9.350;2023-08-21T00:49:01;26.70;99.90
14670;DHT22;7423;48.722;9.350;2023-08-21T00:51:29;26.70;99.90
14670;DHT22;7423;48.722;9.350;2023-08-21T00:53:57;26.70;99.90
14670;DHT22;7423;48.722;9.350;2023-08-21T00:56:24;26.70;99.90
14670;DHT22;7423;48.722;9.350;2023-08-21T00:58:52;26.60;99.90
14670;DHT22;7423;48.722;9.350;2023-08-21T01:01:23;26.60;99.90
14670;DHT22;7423;48.722;9.350;2023-08-21T01:03:53;26.60;99.90
14670;DHT22;7423;48.722;9.350;2023-08-21T01:06:20;26.60;99.90
14670;DHT22;7423;48.722;9.350;2023-08-21T01:08:57;26.60;99.90
14670;DHT22;7423;48.722;9.350;2023-08-21T01:11:49;26.60;99.90
14670;DHT22;7423;48.722;9.350;2023-08-21T01:17:13;26.60;99.90
14670;DHT22;7423;48.722;9.350;2023-08-21T01:19:46;26.50;99.90
14670;DHT22;7423;48.722;9.350;2023-08-21T01:22:15;26.50;99.90
14670;DHT22;7423;48.722;9.350;2023-08-21T01:24:42;26.50;99.90
14670;DHT22;7423;48.722;9.350;2023-08-21T01:27:14;26.50;99.90
14670;DHT22;7423;48.722;9.350;2023-08-21T01:29:42;26.50;99.90
14670;DHT22;7423;48.722;9.350;2023-08-21T01:35:15;26.50;99.90
14670;DHT22;7423;48.722;9.350;2023-08-21T01:37:43;26.50;99.90
14670;DHT22;7423;48.722;9.350;2023-08-21T01:40:10;26.40;99.90
14670;DHT22;7423;48.722;9.350;2023-08-21T01:42:38;26.40;99.90
14670;DHT22;7423;48.722;9.350;2023-08-21T01:45:05;26.40;99.90
14670;DHT22;7423;48.722;9.350;2023-08-21T01:47:33;26.30;99.90
14670;DHT22;7423;48.722;9.350;2023-08-21T01:50:01;26.30;99.90
14670;DHT22;7423;48.722;9.350;2023-08-21T01:52:29;26.30;99.90
14670;DHT22;7423;48.722;9.350;2023-08-21T01:54:56;26.30;99.90
14670;DHT22;7423;48.722;9.350;2023-08-21T01:57:23;26.30;99.90
14670;DHT22;7423;48.722;9.350;2023-08-21T01:59:51;26.30;99.90
14670;DHT22;7423;48.722;9.350;2023-08-21T02:02:21;26.30;99.90
14670;DHT22;7423;48.722;9.350;2023-08-21T02:04:48;26.20;99.90
14670;DHT22;7423;48.722;9.350;2023-08-21T02:07:15;26.20;99.90
14670;DHT22;7423;48.722;9.350;2023-08-21T02:09:42;26.20;99.90
14670;DHT22;7423;48.722;9.350;2023-08-21T02:12:09;26.20;99.90
14670;DHT22;7423;48.722;9.350;2023-08-21T02:14:36;26.20;99.90
14670;DHT22;7423;48.722;9.350;2023-08-21T02:17:03;26.10;99.90
14670;DHT22;7423;48.722;9.350;2023-08-21T02:19:32;26.20;99.90
14670;DHT22;7423;48.722;9.350;2023-08-21T02:21:59;26.10;99.90
14670;DHT22;7423;48.722;9.350;2023-08-21T02:24:26;26.20;99.90
14670;DHT22;7423;48.722;9.350;2023-08-21T02:26:53;26.00;99.90
14670;DHT22;7423;48.722;9.350;2023-08-21T02:29:20;26.00;99.90
14670;DHT22;7423;48.722;9.350;2023-08-21T02:31:49;26.00;99.90
14670;DHT22;7423;48.722;9.350;2023-08-21T02:34:16;26.00;99.90
14670;DHT22;7423;48.722;9.350;2023-08-21T02:36:43;26.10;99.90
14670;DHT22;7423;48.722;9.350;2023-08-21T02:39:10;26.00;99.90
14670;DHT22;7423;48.722;9.350;2023-08-21T02:41:37;26.00;99.90
14670;DHT22;7423;48.722;9.350;2023-08-21T02:44:04;25.90;99.90
14670;DHT22;7423;48.722;9.350;2023-08-21T02:46:31;25.90;99.90
14670;DHT22;7423;48.722;9.350;2023-08-21T02:49:00;25.90;99.90
14670;DHT22;7423;48.722;9.350;2023-08-21T02:51:28;25.90;99.90
14670;DHT22;7423;48.722;9.350;2023-08-21T02:53:55;25.90;99.90
14670;DHT22;7423;48.722;9.350;2023-08-21T02:56:22;25.90;99.90
14670;DHT22;7423;48.722;9.350;2023-08-21T02:58:49;25.90;99.90
14670;DHT22;7423;48.722;9.350;2023-08-21T03:01:16;25.90;99.90
14670;DHT22;7423;48.722;9.350;2023-08-21T03:03:43;25.90;99.90
14670;DHT22;7423;48.722;9.350;2023-08-21T03:06:10;25.90;99.90
14670;DHT22;7423;48.722;9.350;2023-08-21T03:08:37;25.90;99.90
14670;DHT22;7423;48.722;9.350;2023-08-21T03:11:04;25.80;99.90
14670;DHT22;7423;48.722;9.350;2023-08-21T03:13:31;25.80;99.90
14670;DHT22;7423;48.722;9.350;2023-08-21T03:15:58;25.80;99.90
14670;DHT22;7423;48.722;9.350;2023-08-21T03:18:29;25.80;99.90
14670;DHT22;7423;48.722;9.350;2023-08-21T03:20:57;25.70;99.90
14670;DHT22;7423;48.722;9.350;2023-08-21T03:23:24;25.70;99.90
14670;DHT22;7423;48.722;9.350;2023-08-21T03:25:54;25.60;99.90
14670;DHT22;7423;48.722;9.350;2023-08-21T03:28:21;25.60;99.90
14670;DHT22;7423;48.722;9.350;2023-08-21T03:30:48;25.60;99.90
14670;DHT22;7423;48.722;9.350;2023-08-21T03:33:15;25.60;99.90
14670;DHT22;7423;48.722;9.350;2023-08-21T03:35:42;25.60;99.90
14670;DHT22;7423;48.722;9.350;2023-08-21T03:38:09;25.70;99.90
14670;DHT22;7423;48.722;9.350;2023-08-21T03:40:39;25.60;99.90
14670;DHT22;7423;48.722;9.350;2023-08-21T03:43:06;25.60;99.90
14670;DHT22;7423;48.722;9.350;2023-08-21T03:45:33;25.60;99.90
14670;DHT22;7423;48.722;9.350;2023-08-21T03:48:00;25.60;99.90
14670;DHT22;7423;48.722;9.350;2023-08-21T03:50:27;25.60;99.90
14670;DHT22;7423;48.722;9.350;2023-08-21T03:52:54;25.50;99.90
14670;DHT22;7423;48.722;9.350;2023-08-21T03:55:21;25.50;99.90
14670;DHT22;7423;48.722;9.350;2023-08-21T03:57:48;25.50;99.90
14670;DHT22;7423;48.722;9.350;2023-08-21T04:00:15;25.50;99.90
14670;DHT22;7423;48.722;9.350;2023-08-21T04:02:44;25.50;99.90
14670;DHT22;7423;48.722;9.350;2023-08-21T04:05:11;25.50;99.90
14670;DHT22;7423;48.722;9.350;2023-08-21T04:07:38;25.50;99.90
14670;DHT22;7423;48.722;9.350;2023-08-21T04:10:05;25.50;99.90
14670;DHT22;7423;48.722;9.350;2023-08-21T04:12:33;25.40;99.90
14670;DHT22;7423;48.722;9.350;2023-08-21T04:15:00;25.40;99.90
14670;DHT22;7423;48.722;9.350;2023-08-21T04:17:27;25.40;99.90
14670;DHT22;7423;48.722;9.350;2023-08-21T04:19:55;25.40;99.90
14670;DHT22;7423;48.722;9.350;2023-08-21T04:22:22;25.30;99.90
14670;DHT22;7423;48.722;9.350;2023-08-21T04:24:49;25.40;99.90
14670;DHT22;7423;48.722;9.350;2023-08-21T04:27:16;25.40;99.90
14670;DHT22;7423;48.722;9.350;2023-08-21T04:29:43;25.40;99.90
14670;DHT22;7423;48.722;9.350;2023-08-21T04:32:10;25.40;99.90
14670;DHT22;7423;48.722;9.350;2023-08-21T04:34:39;25.40;99.90
14670;DHT22;7423;48.722;9.350;2023-08-21T04:37:06;25.40;99.90
14670;DHT22;7423;48.722;9.350;2023-08-21T04:39:33;25.30;99.90
14670;DHT22;7423;48.722;9.350;2023-08-21T04:42:00;25.30;99.90
14670;DHT22;7423;48.722;9.350;2023-08-21T04:44:26;25.30;99.90
14670;DHT22;7423;48.722;9.350;2023-08-21T04:46:53;25.30;99.90
14670;DHT22;7423;48.722;9.350;2023-08-21T04:49:21;25.30;99.90
14670;DHT22;7423;48.722;9.350;2023-08-21T04:51:48;25.30;99.90
14670;DHT22;7423;48.722;9.350;2023-08-21T04:54:15;25.30;99.90
14670;DHT22;7423;48.722;9.350;2023-08-21T04:56:42;25.30;99.90
14670;DHT22;7423;48.722;9.350;2023-08-21T04:59:09;25.20;99.90
14670;DHT22;7423;48.722;9.350;2023-08-21T05:01:36;25.30;99.90
14670;DHT22;7423;48.722;9.350;2023-08-21T05:04:03;25.30;99.90
14670;DHT22;7423;48.722;9.350;2023-08-21T05:06:31;25.30;99.90
14670;DHT22;7423;48.722;9.350;2023-08-21T05:08:58;25.30;99.90
14670;DHT22;7423;48.722;9.350;2023-08-21T05:11:26;25.30;99.90
14670;DHT22;7423;48.722;9.350;2023-08-21T05:13:54;25.30;99.90
14670;DHT22;7423;48.722;9.350;2023-08-21T05:16:21;25.20;99.90
14670;DHT22;7423;48.722;9.350;2023-08-21T05:18:48;25.20;99.90
14670;DHT22;7423;48.722;9.350;2023-08-21T05:21:15;25.20;99.90
14670;DHT22;7423;48.722;9.350;2023-08-21T05:23:42;25.20;99.90
14670;DHT22;7423;48.722;9.350;2023-08-21T05:26:09;25.30;99.90
14670;DHT22;7423;48.722;9.350;2023-08-21T05:28:36;25.30;99.90
14670;DHT22;7423;48.722;9.350;2023-08-21T05:31:04;25.20;99.90
14670;DHT22;7423;48.722;9.350;2023-08-21T05:33:31;25.20;99.90
14670;DHT22;7423;48.722;9.350;2023-08-21T05:35:58;25.20;99.90
14670;DHT22;7423;48.722;9.350;2023-08-21T05:38:26;25.20;99.90
14670;DHT22;7423;48.722;9.350;2023-08-21T05:40:54;25.20;99.90
14670;DHT22;7423;48.722;9.350;2023-08-21T05:43:21;25.30;99.90
14670;DHT22;7423;48.722;9.350;2023-08-21T05:45:48;25.30;99.90
14670;DHT22;7423;48.722;9.350;2023-08-21T05:48:16;25.30;99.90
14670;DHT22;7423;48.722;9.350;2023-08-21T05:50:51;25.20;99.90
14670;DHT22;7423;48.722;9.350;2023-08-21T05:53:19;25.30;99.90
14670;DHT22;7423;48.722;9.350;2023-08-21T05:55:47;25.30;99.90
14670;DHT22;7423;48.722;9.350;2023-08-21T05:58:14;25.30;99.90
14670;DHT22;7423;48.722;9.350;2023-08-21T06:00:44;25.30;99.90
14670;DHT22;7423;48.722;9.350;2023-08-21T06:03:14;25.30;99.90
14670;DHT22;7423;48.722;9.350;2023-08-21T06:05:42;25.30;99.90
14670;DHT22;7423;48.722;9.350;2023-08-21T06:08:11;25.40;99.90
14670;DHT22;7423;48.722;9.350;2023-08-21T06:10:38;25.40;99.90
14670;DHT22;7423;48.722;9.350;2023-08-21T06:13:05;25.40;99.90
14670;DHT22;7423;48.722;9.350;2023-08-21T06:15:33;25.40;99.90
14670;DHT22;7423;48.722;9.350;2023-08-21T06:18:00;25.40;99.90
14670;DHT22;7423;48.722;9.350;2023-08-21T06:20:27;25.40;99.90
14670;DHT22;7423;48.722;9.350;2023-08-21T06:22:54;25.40;99.90
14670;DHT22;7423;48.722;9.350;2023-08-21T06:25:21;25.40;99.90
14670;DHT22;7423;48.722;9.350;2023-08-21T06:27:48;25.40;99.90
14670;DHT22;7423;48.722;9.350;2023-08-21T06:30:25;25.40;99.90
14670;DHT22;7423;48.722;9.350;2023-08-21T06:32:54;25.40;99.90
14670;DHT22;7423;48.722;9.350;2023-08-21T06:35:22;25.40;99.90
14670;DHT22;7423;48.722;9.350;2023-08-21T06:37:49;25.40;99.90
14670;DHT22;7423;48.722;9.350;2023-08-21T06:40:17;25.40;99.90
14670;DHT22;7423;48.722;9.350;2023-08-21T06:42:44;25.40;99.90
14670;DHT22;7423;48.722;9.350;2023-08-21T06:45:11;25.50;99.90
14670;DHT22;7423;48.722;9.350;2023-08-21T06:47:39;25.50;99.90
14670;DHT22;7423;48.722;9.350;2023-08-21T06:50:07;25.50;99.90
14670;DHT22;7423;48.722;9.350;2023-08-21T06:52:35;25.50;99.90
14670;DHT22;7423;48.722;9.350;2023-08-21T06:55:03;25.50;99.90
14670;DHT22;7423;48.722;9.350;2023-08-21T06:57:30;25.60;99.90
14670;DHT22;7423;48.722;9.350;2023-08-21T06:59:58;25.60;99.90
14670;DHT22;7423;48.722;9.350;2023-08-21T07:02:27;25.60;99.90
14670;DHT22;7423;48.722;9.350;2023-08-21T07:04:54;25.60;99.90
14670;DHT22;7423;48.722;9.350;2023-08-21T07:07:21;25.60;99.90
14670;DHT22;7423;48.722;9.350;2023-08-21T07:09:50;25.60;99.90
14670;DHT22;7423;48.722;9.350;2023-08-21T07:12:17;25.70;99.90
14670;DHT22;7423;48.722;9.350;2023-08-21T07:14:46;25.70;99.90
14670;DHT22;7423;48.722;9.350;2023-08-21T07:17:14;25.70;99.90
14670;DHT22;7423;48.722;9.350;2023-08-21T07:19:41;25.70;99.90
14670;DHT22;7423;48.722;9.350;2023-08-21T07:22:13;25.70;99.90
14670;DHT22;7423;48.722;9.350;2023-08-21T07:24:40;25.80;99.90
14670;DHT22;7423;48.722;9.350;2023-08-21T07:27:07;25.60;99.90
14670;DHT22;7423;48.722;9.350;2023-08-21T07:29:37;25.80;99.90
14670;DHT22;7423;48.722;9.350;2023-08-21T07:32:06;25.90;99.90
14670;DHT22;7423;48.722;9.350;2023-08-21T07:34:34;25.90;99.90
14670;DHT22;7423;48.722;9.350;2023-08-21T07:37:02;25.90;99.90
14670;DHT22;7423;48.722;9.350;2023-08-21T07:39:30;26.00;99.90
14670;DHT22;7423;48.722;9.350;2023-08-21T07:41:57;26.00;99.90
14670;DHT22;7423;48.722;9.350;2023-08-21T07:44:24;26.00;99.90
14670;DHT22;7423;48.722;9.350;2023-08-21T07:46:52;26.00;99.90
14670;DHT22;7423;48.722;9.350;2023-08-21T07:49:19;26.00;99.90
14670;DHT22;7423;48.722;9.350;2023-08-21T07:51:47;26.10;99.90
14670;DHT22;7423;48.722;9.350;2023-08-21T07:54:14;26.10;99.90
14670;DHT22;7423;48.722;9.350;2023-08-21T07:56:41;26.20;99.90
14670;DHT22;7423;48.722;9.350;2023-08-21T07:59:08;26.20;99.90
14670;DHT22;7423;48.722;9.350;2023-08-21T08:01:36;26.20;99.90
14670;DHT22;7423;48.722;9.350;2023-08-21T08:04:03;26.20;99.90
14670;DHT22;7423;48.722;9.350;2023-08-21T08:06:32;26.20;99.90
14670;DHT22;7423;48.722;9.350;2023-08-21T08:08:59;26.30;99.90
14670;DHT22;7423;48.722;9.350;2023-08-21T08:11:27;26.30;99.90
14670;DHT22;7423;48.722;9.350;2023-08-21T08:13:54;26.30;99.90
14670;DHT22;7423;48.722;9.350;2023-08-21T08:16:22;26.40;99.90
14670;DHT22;7423;48.722;9.350;2023-08-21T08:18:49;26.40;99.90
14670;DHT22;7423;48.722;9.350;2023-08-21T08:21:16;26.40;99.90
14670;DHT22;7423;48.722;9.350;2023-08-21T08:23:45;26.50;99.90
14670;DHT22;7423;48.722;9.350;2023-08-21T08:26:13;26.60;99.90
14670;DHT22;7423;48.722;9.350;2023-08-21T08:28:40;26.60;99.90
14670;DHT22;7423;48.722;9.350;2023-08-21T08:31:18;26.60;99.90
14670;DHT22;7423;48.722;9.350;2023-08-21T08:33:45;26.70;99.90
14670;DHT22;7423;48.722;9.350;2023-08-21T08:36:13;26.80;99.90
14670;DHT22;7423;48.722;9.350;2023-08-21T08:38:40;26.90;99.90
14670;DHT22;7423;48.722;9.350;2023-08-21T08:41:11;26.90;99.90
14670;DHT22;7423;48.722;9.350;2023-08-21T08:43:42;26.90;99.90
14670;DHT22;7423;48.722;9.350;2023-08-21T08:46:10;27.00;99.90
14670;DHT22;7423;48.722;9.350;2023-08-21T08:48:39;27.10;99.90
14670;DHT22;7423;48.722;9.350;2023-08-21T08:51:07;27.00;99.90
14670;DHT22;7423;48.722;9.350;2023-08-21T08:53:36;27.10;99.90
14670;DHT22;7423;48.722;9.350;2023-08-21T08:56:04;27.10;99.90
14670;DHT22;7423;48.722;9.350;2023-08-21T08:58:31;27.20;99.90
14670;DHT22;7423;48.722;9.350;2023-08-21T09:00:59;27.20;99.90
14670;DHT22;7423;48.722;9.350;2023-08-21T09:03:29;27.30;99.90
14670;DHT22;7423;48.722;9.350;2023-08-21T09:05:56;27.30;99.90
14670;DHT22;7423;48.722;9.350;2023-08-21T09:08:27;27.40;99.90
14670;DHT22;7423;48.722;9.350;2023-08-21T09:10:54;27.50;99.90
14670;DHT22;7423;48.722;9.350;2023-08-21T09:13:21;27.50;99.90
14670;DHT22;7423;48.722;9.350;2023-08-21T09:15:54;27.60;99.90
14670;DHT22;7423;48.722;9.350;2023-08-21T09:18:22;27.70;99.90
14670;DHT22;7423;48.722;9.350;2023-08-21T09:20:50;27.70;99.90
14670;DHT22;7423;48.722;9.350;2023-08-21T09:23:18;27.70;99.90
14670;DHT22;7423;48.722;9.350;2023-08-21T09:25:48;27.80;99.90
14670;DHT22;7423;48.722;9.350;2023-08-21T09:28:20;27.80;99.90
14670;DHT22;7423;48.722;9.350;2023-08-21T09:30:52;28.00;99.90
14670;DHT22;7423;48.722;9.350;2023-08-21T09:33:21;28.20;99.90
14670;DHT22;7423;48.722;9.350;2023-08-21T09:35:54;28.20;99.90
14670;DHT22;7423;48.722;9.350;2023-08-21T09:38:22;28.30;99.90
14670;DHT22;7423;48.722;9.350;2023-08-21T09:40:53;28.30;99.90
14670;DHT22;7423;48.722;9.350;2023-08-21T09:43:23;28.40;99.90
14670;DHT22;7423;48.722;9.350;2023-08-21T09:45:53;28.30;99.90
14670;DHT22;7423;48.722;9.350;2023-08-21T09:48:27;28.40;99.90
14670;DHT22;7423;48.722;9.350;2023-08-21T09:50:54;28.50;99.90
14670;DHT22;7423;48.722;9.350;2023-08-21T09:53:23;28.50;99.90
14670;DHT22;7423;48.722;9.350;2023-08-21T09:55:54;28.60;99.90
14670;DHT22;7423;48.722;9.350;2023-08-21T09:58:22;28.60;99.90
14670;DHT22;7423;48.722;9.350;2023-08-21T10:00:52;28.60;99.90
14670;DHT22;7423;48.722;9.350;2023-08-21T10:03:26;28.60;99.90
14670;DHT22;7423;48.722;9.350;2023-08-21T10:05:56;28.70;99.90
14670;DHT22;7423;48.722;9.350;2023-08-21T10:08:26;28.80;99.90
14670;DHT22;7423;48.722;9.350;2023-08-21T10:10:55;28.90;99.90
14670;DHT22;7423;48.722;9.350;2023-08-21T10:13:22;29.00;99.90
14670;DHT22;7423;48.722;9.350;2023-08-21T10:15:50;29.00;99.90
14670;DHT22;7423;48.722;9.350;2023-08-21T10:20:45;29.10;99.90
14670;DHT22;7423;48.722;9.350;2023-08-21T10:23:45;29.20;99.90
14670;DHT22;7423;48.722;9.350;2023-08-21T10:26:13;29.30;99.90
14670;DHT22;7423;48.722;9.350;2023-08-21T10:28:55;29.40;99.90
14670;DHT22;7423;48.722;9.350;2023-08-21T10:33:55;29.60;99.90
14670;DHT22;7423;48.722;9.350;2023-08-21T10:39:26;29.80;99.90
14670;DHT22;7423;48.722;9.350;2023-08-21T10:47:17;30.00;99.90
14670;DHT22;7423;48.722;9.350;2023-08-21T10:49:47;30.10;99.90
14670;DHT22;7423;48.722;9.350;2023-08-21T10:54:58;30.70;99.90
14670;DHT22;7423;48.722;9.350;2023-08-21T10:57:28;31.20;99.90
14670;DHT22;7423;48.722;9.350;2023-08-21T11:00:00;31.90;99.90
14670;DHT22;7423;48.722;9.350;2023-08-21T11:02:32;32.50;99.90
14670;DHT22;7423;48.722;9.350;2023-08-21T11:05:00;33.30;99.90
14670;DHT22;7423;48.722;9.350;2023-08-21T11:07:30;34.20;99.90
14670;DHT22;7423;48.722;9.350;2023-08-21T11:09:57;35.20;99.90
14670;DHT22;7423;48.722;9.350;2023-08-21T11:12:25;36.40;99.90
14670;DHT22;7423;48.722;9.350;2023-08-21T11:14:52;37.50;99.90
14670;DHT22;7423;48.722;9.350;2023-08-21T11:17:19;38.50;99.90
14670;DHT22;7423;48.722;9.350;2023-08-21T11:19:46;39.00;98.60
14670;DHT22;7423;48.722;9.350;2023-08-21T11:22:18;39.50;96.80
14670;DHT22;7423;48.722;9.350;2023-08-21T11:24:49;40.30;94.90
14670;DHT22;7423;48.722;9.350;2023-08-21T11:27:18;40.90;93.50
14670;DHT22;7423;48.722;9.350;2023-08-21T11:29:51;41.20;92.10
14670;DHT22;7423;48.722;9.350;2023-08-21T11:32:20;40.50;92.30
14670;DHT22;7423;48.722;9.350;2023-08-21T11:34:56;39.30;93.20
14670;DHT22;7423;48.722;9.350;2023-08-21T11:37:26;38.30;94.20
14670;DHT22;7423;48.722;9.350;2023-08-21T11:39:55;37.50;95.20
14670;DHT22;7423;48.722;9.350;2023-08-21T11:42:33;37.00;95.50
14670;DHT22;7423;48.722;9.350;2023-08-21T11:45:01;36.70;95.90
14670;DHT22;7423;48.722;9.350;2023-08-21T11:47:34;36.50;96.40
14670;DHT22;7423;48.722;9.350;2023-08-21T11:50:06;36.30;97.00
14670;DHT22;7423;48.722;9.350;2023-08-21T11:52:37;35.80;97.30
14670;DHT22;7423;48.722;9.350;2023-08-21T11:55:11;35.80;98.00
14670;DHT22;7423;48.722;9.350;2023-08-21T11:57:51;35.50;98.50
14670;DHT22;7423;48.722;9.350;2023-08-21T12:00:19;35.20;98.60
14670;DHT22;7423;48.722;9.350;2023-08-21T12:02:59;35.00;99.00
14670;DHT22;7423;48.722;9.350;2023-08-21T12:05:28;34.80;99.20
14670;DHT22;7423;48.722;9.350;2023-08-21T12:07:55;34.60;99.40
14670;DHT22;7423;48.722;9.350;2023-08-21T12:10:27;34.40;99.70
14670;DHT22;7423;48.722;9.350;2023-08-21T12:12:55;34.20;99.90
14670;DHT22;7423;48.722;9.350;2023-08-21T12:15:23;34.00;99.90
14670;DHT22;7423;48.722;9.350;2023-08-21T12:17:50;33.90;99.90
14670;DHT22;7423;48.722;9.350;2023-08-21T12:20:17;33.80;99.90
14670;DHT22;7423;48.722;9.350;2023-08-21T12:22:44;33.70;99.90
14670;DHT22;7423;48.722;9.350;2023-08-21T12:25:12;33.50;99.90
14670;DHT22;7423;48.722;9.350;2023-08-21T12:27:39;33.50;99.90
14670;DHT22;7423;48.722;9.350;2023-08-21T12:30:07;33.30;99.90
14670;DHT22;7423;48.722;9.350;2023-08-21T12:32:35;33.30;99.90
14670;DHT22;7423;48.722;9.350;2023-08-21T12:35:02;33.10;99.90
14670;DHT22;7423;48.722;9.350;2023-08-21T12:37:31;33.10;99.90
14670;DHT22;7423;48.722;9.350;2023-08-21T12:39:58;33.00;99.90
14670;DHT22;7423;48.722;9.350;2023-08-21T12:42:25;32.90;99.90
14670;DHT22;7423;48.722;9.350;2023-08-21T12:44:53;32.80;99.90
14670;DHT22;7423;48.722;9.350;2023-08-21T12:47:19;32.80;99.90
14670;DHT22;7423;48.722;9.350;2023-08-21T12:49:47;32.70;99.90
14670;DHT22;7423;48.722;9.350;2023-08-21T12:52:14;32.60;99.90
14670;DHT22;7423;48.722;9.350;2023-08-21T12:54:41;32.60;99.90
14670;DHT22;7423;48.722;9.350;2023-08-21T12:57:09;32.60;99.90
14670;DHT22;7423;48.722;9.350;2023-08-21T12:59:38;32.60;99.90
14670;DHT22;7423;48.722;9.350;2023-08-21T13:02:05;32.60;99.90
14670;DHT22;7423;48.722;9.350;2023-08-21T13:04:33;32.70;99.90
14670;DHT22;7423;48.722;9.350;2023-08-21T13:07:00;32.60;99.90
14670;DHT22;7423;48.722;9.350;2023-08-21T13:09:29;32.60;99.90
14670;DHT22;7423;48.722;9.350;2023-08-21T13:11:57;32.60;99.90
14670;DHT22;7423;48.722;9.350;2023-08-21T13:14:24;32.60;99.90
14670;DHT22;7423;48.722;9.350;2023-08-21T13:16:51;32.60;99.90
14670;DHT22;7423;48.722;9.350;2023-08-21T13:19:18;32.60;99.90
14670;DHT22;7423;48.722;9.350;2023-08-21T13:21:45;32.60;99.90
14670;DHT22;7423;48.722;9.350;2023-08-21T13:24:13;32.60;99.90
14670;DHT22;7423;48.722;9.350;2023-08-21T13:26:40;32.60;99.90
14670;DHT22;7423;48.722;9.350;2023-08-21T13:29:07;32.60;99.90
14670;DHT22;7423;48.722;9.350;2023-08-21T13:31:36;32.60;99.90
14670;DHT22;7423;48.722;9.350;2023-08-21T13:34:05;32.60;99.90
14670;DHT22;7423;48.722;9.350;2023-08-21T13:36:32;32.60;99.90
14670;DHT22;7423;48.722;9.350;2023-08-21T13:38:59;32.60;99.90
14670;DHT22;7423;48.722;9.350;2023-08-21T13:41:26;32.70;99.90
14670;DHT22;7423;48.722;9.350;2023-08-21T13:43:54;32.80;99.90
14670;DHT22;7423;48.722;9.350;2023-08-21T13:46:21;32.70;99.90
14670;DHT22;7423;48.722;9.350;2023-08-21T13:48:50;32.70;99.90
14670;DHT22;7423;48.722;9.350;2023-08-21T13:51:17;32.70;99.90
14670;DHT22;7423;48.722;9.350;2023-08-21T13:53:47;32.70;99.90
14670;DHT22;7423;48.722;9.350;2023-08-21T13:56:14;32.70;99.90
14670;DHT22;7423;48.722;9.350;2023-08-21T13:58:41;32.70;99.90
14670;DHT22;7423;48.722;9.350;2023-08-21T14:01:08;32.70;99.90
14670;DHT22;7423;48.722;9.350;2023-08-21T14:03:36;32.70;99.90
14670;DHT22;7423;48.722;9.350;2023-08-21T14:06:03;32.70;99.90
14670;DHT22;7423;48.722;9.350;2023-08-21T14:08:30;32.70;99.90
14670;DHT22;7423;48.722;9.350;2023-08-21T14:10:58;32.70;99.90
14670;DHT22;7423;48.722;9.350;2023-08-21T14:13:25;32.70;99.90
14670;DHT22;7423;48.722;9.350;2023-08-21T14:15:52;32.60;99.90
14670;DHT22;7423;48.722;9.350;2023-08-21T14:18:20;32.60;99.90
14670;DHT22;7423;48.722;9.350;2023-08-21T14:20:47;32.70;99.90
14670;DHT22;7423;48.722;9.350;2023-08-21T14:23:14;32.60;99.90
14670;DHT22;7423;48.722;9.350;2023-08-21T14:25:41;32.60;99.90
14670;DHT22;7423;48.722;9.350;2023-08-21T14:28:08;32.60;99.90
14670;DHT22;7423;48.722;9.350;2023-08-21T14:30:35;32.70;99.90
14670;DHT22;7423;48.722;9.350;2023-08-21T14:33:02;32.70;99.90
14670;DHT22;7423;48.722;9.350;2023-08-21T14:35:30;32.70;99.90
14670;DHT22;7423;48.722;9.350;2023-08-21T14:37:59;32.70;99.90
14670;DHT22;7423;48.722;9.350;2023-08-21T14:40:27;32.70;99.90
14670;DHT22;7423;48.722;9.350;2023-08-21T14:42:54;32.70;99.90
14670;DHT22;7423;48.722;9.350;2023-08-21T14:45:21;32.70;99.70
14670;DHT22;7423;48.722;9.350;2023-08-21T14:47:48;32.80;99.80
14670;DHT22;7423;48.722;9.350;2023-08-21T14:50:15;32.90;99.80
14670;DHT22;7423;48.722;9.350;2023-08-21T14:52:42;32.90;99.60
14670;DHT22;7423;48.722;9.350;2023-08-21T14:55:09;32.90;99.60
14670;DHT22;7423;48.722;9.350;2023-08-21T14:57:37;32.90;99.50
14670;DHT22;7423;48.722;9.350;2023-08-21T15:00:04;32.90;99.30
14670;DHT22;7423;48.722;9.350;2023-08-21T15:02:32;32.90;99.30
14670;DHT22;7423;48.722;9.350;2023-08-21T15:05:01;32.90;99.30
14670;DHT22;7423;48.722;9.350;2023-08-21T15:07:32;32.90;99.50
14670;DHT22;7423;48.722;9.350;2023-08-21T15:09:59;32.80;99.70
14670;DHT22;7423;48.722;9.350;2023-08-21T15:12:26;32.80;99.50
14670;DHT22;7423;48.722;9.350;2023-08-21T15:14:53;32.80;99.40
14670;DHT22;7423;48.722;9.350;2023-08-21T15:17:20;32.70;99.30
14670;DHT22;7423;48.722;9.350;2023-08-21T15:19:48;32.70;99.10
14670;DHT22;7423;48.722;9.350;2023-08-21T15:22:17;32.70;99.50
14670;DHT22;7423;48.722;9.350;2023-08-21T15:24:44;32.70;99.70
14670;DHT22;7423;48.722;9.350;2023-08-21T15:27:11;32.70;99.80
14670;DHT22;7423;48.722;9.350;2023-08-21T15:29:40;32.80;99.80
14670;DHT22;7423;48.722;9.350;2023-08-21T15:32:07;32.70;99.80
14670;DHT22;7423;48.722;9.350;2023-08-21T15:34:34;32.80;99.70
14670;DHT22;7423;48.722;9.350;2023-08-21T15:37:01;32.80;99.30
14670;DHT22;7423;48.722;9.350;2023-08-21T15:39:28;32.80;99.30
14670;DHT22;7423;48.722;9.350;2023-08-21T15:41:55;32.80;99.30
14670;DHT22;7423;48.722;9.350;2023-08-21T15:44:22;32.80;99.10
14670;DHT22;7423;48.722;9.350;2023-08-21T15:46:49;32.90;99.10
14670;DHT22;7423;48.722;9.350;2023-08-21T15:49:31;32.80;99.00
14670;DHT22;7423;48.722;9.350;2023-08-21T15:51:58;32.90;99.10
14670;DHT22;7423;48.722;9.350;2023-08-21T15:54:31;32.90;99.10
14670;DHT22;7423;48.722;9.350;2023-08-21T15:57:00;32.90;99.20
14670;DHT22;7423;48.722;9.350;2023-08-21T15:59:27;33.00;99.20
14670;DHT22;7423;48.722;9.350;2023-08-21T16:01:54;33.00;99.10
14670;DHT22;7423;48.722;9.350;2023-08-21T16:04:24;33.00;99.20
14670;DHT22;7423;48.722;9.350;2023-08-21T16:06:51;33.10;98.90
14670;DHT22;7423;48.722;9.350;2023-08-21T16:09:18;33.10;98.90
14670;DHT22;7423;48.722;9.350;2023-08-21T16:11:45;33.10;99.10
14670;DHT22;7423;48.722;9.350;2023-08-21T16:14:12;33.00;99.20